sensor_id;sensor_type;location;lat;lon;timestamp;P1;durP1;ratioP1;P2;durP2;ratioP2
63173;SDS011;49265;54.526;9.028;2024-01-30T00:00:35;52.03;;;22.15;;
63173;SDS011;49265;54.526;9.028;2024-01-30T00:03:02;54.55;;;22.80;;
63173;SDS011;49265;54.526;9.028;2024-01-30T00:05:30;56.08;;;22.50;;
63173;SDS011;49265;54.526;9.028;2024-01-30T00:07:56;48.15;;;19.85;;
63173;SDS011;49265;54.526;9.028;2024-01-30T00:10:21;43.40;;;20.83;;
63173;SDS011;49265;54.526;9.028;2024-01-30T00:12:46;49.00;;;20.98;;
63173;SDS011;49265;54.526;9.028;2024-01-30T00:15:21;51.47;;;24.45;;
63173;SDS011;49265;54.526;9.028;2024-01-30T00:17:46;51.63;;;21.98;;
63173;SDS011;49265;54.526;9.028;2024-01-30T00:20:24;53.30;;;22.35;;
63173;SDS011;49265;54.526;9.028;2024-01-30T00:22:53;49.80;;;22.38;;
63173;SDS011;49265;54.526;9.028;2024-01-30T00:25:18;50.20;;;22.27;;
63173;SDS011;49265;54.526;9.028;2024-01-30T00:27:43;45.38;;;22.08;;
63173;SDS011;49265;54.526;9.028;2024-01-30T00:30:09;50.70;;;22.55;;
63173;SDS011;49265;54.526;9.028;2024-01-30T00:32:34;48.05;;;20.92;;
63173;SDS011;49265;54.526;9.028;2024-01-30T00:35:00;55.65;;;22.27;;
63173;SDS011;49265;54.526;9.028;2024-01-30T00:37:25;48.30;;;22.08;;
63173;SDS011;49265;54.526;9.028;2024-01-30T00:39:51;43.15;;;20.70;;
63173;SDS011;49265;54.526;9.028;2024-01-30T00:42:16;51.00;;;20.92;;
63173;SDS011;49265;54.526;9.028;2024-01-30T00:44:41;56.20;;;23.88;;
63173;SDS011;49265;54.526;9.028;2024-01-30T00:47:07;48.05;;;22.52;;
63173;SDS011;49265;54.526;9.028;2024-01-30T00:49:32;47.72;;;21.13;;
63173;SDS011;49265;54.526;9.028;2024-01-30T00:51:58;53.30;;;22.98;;
63173;SDS011;49265;54.526;9.028;2024-01-30T00:54:23;49.90;;;23.33;;
63173;SDS011;49265;54.526;9.028;2024-01-30T00:56:48;49.47;;;22.10;;
63173;SDS011;49265;54.526;9.028;2024-01-30T00:59:14;48.72;;;21.25;;
63173;SDS011;49265;54.526;9.028;2024-01-30T01:01:39;51.25;;;22.27;;
63173;SDS011;49265;54.526;9.028;2024-01-30T01:04:05;47.03;;;21.27;;
63173;SDS011;49265;54.526;9.028;2024-01-30T01:06:30;47.78;;;21.80;;
63173;SDS011;49265;54.526;9.028;2024-01-30T01:08:56;47.05;;;21.52;;
63173;SDS011;49265;54.526;9.028;2024-01-30T01:11:27;51.35;;;22.17;;
63173;SDS011;49265;54.526;9.028;2024-01-30T01:13:52;47.45;;;22.27;;
63173;SDS011;49265;54.526;9.028;2024-01-30T01:16:24;48.13;;;22.17;;
63173;SDS011;49265;54.526;9.028;2024-01-30T01:18:49;52.30;;;21.52;;
63173;SDS011;49265;54.526;9.028;2024-01-30T01:21:17;53.92;;;20.80;;
63173;SDS011;49265;54.526;9.028;2024-01-30T01:23:43;51.22;;;23.33;;
63173;SDS011;49265;54.526;9.028;2024-01-30T01:26:15;46.58;;;22.15;;
63173;SDS011;49265;54.526;9.028;2024-01-30T01:28:43;46.72;;;22.83;;
63173;SDS011;49265;54.526;9.028;2024-01-30T01:31:08;46.35;;;21.70;;
63173;SDS011;49265;54.526;9.028;2024-01-30T01:33:52;47.25;;;21.40;;
63173;SDS011;49265;54.526;9.028;2024-01-30T01:36:18;43.22;;;20.70;;
63173;SDS011;49265;54.526;9.028;2024-01-30T01:38:47;48.83;;;21.88;;
63173;SDS011;49265;54.526;9.028;2024-01-30T01:41:12;45.28;;;21.33;;
63173;SDS011;49265;54.526;9.028;2024-01-30T01:43:37;47.38;;;21.10;;
63173;SDS011;49265;54.526;9.028;2024-01-30T01:46:06;48.95;;;22.40;;
63173;SDS011;49265;54.526;9.028;2024-01-30T01:48:35;40.67;;;20.98;;
63173;SDS011;49265;54.526;9.028;2024-01-30T01:51:01;47.13;;;21.83;;
63173;SDS011;49265;54.526;9.028;2024-01-30T01:53:26;44.47;;;20.23;;
63173;SDS011;49265;54.526;9.028;2024-01-30T01:55:52;41.05;;;19.92;;
63173;SDS011;49265;54.526;9.028;2024-01-30T01:58:18;44.05;;;22.15;;
63173;SDS011;49265;54.526;9.028;2024-01-30T02:00:48;38.88;;;19.70;;
63173;SDS011;49265;54.526;9.028;2024-01-30T02:03:13;40.15;;;20.55;;
63173;SDS011;49265;54.526;9.028;2024-01-30T02:05:45;46.25;;;20.13;;
63173;SDS011;49265;54.526;9.028;2024-01-30T02:08:10;43.10;;;20.90;;
63173;SDS011;49265;54.526;9.028;2024-01-30T02:10:35;42.70;;;20.67;;
63173;SDS011;49265;54.526;9.028;2024-01-30T02:13:01;44.72;;;21.17;;
63173;SDS011;49265;54.526;9.028;2024-01-30T02:15:26;39.38;;;19.83;;
63173;SDS011;49265;54.526;9.028;2024-01-30T02:17:52;40.40;;;20.73;;
63173;SDS011;49265;54.526;9.028;2024-01-30T02:20:17;42.80;;;21.05;;
63173;SDS011;49265;54.526;9.028;2024-01-30T02:22:42;45.95;;;21.25;;
63173;SDS011;49265;54.526;9.028;2024-01-30T02:25:08;38.60;;;19.73;;
63173;SDS011;49265;54.526;9.028;2024-01-30T02:27:33;37.47;;;20.02;;
63173;SDS011;49265;54.526;9.028;2024-01-30T02:29:59;40.22;;;20.02;;
63173;SDS011;49265;54.526;9.028;2024-01-30T02:32:24;40.65;;;20.63;;
63173;SDS011;49265;54.526;9.028;2024-01-30T02:34:49;39.95;;;20.02;;
63173;SDS011;49265;54.526;9.028;2024-01-30T02:37:16;39.92;;;20.38;;
63173;SDS011;49265;54.526;9.028;2024-01-30T02:39:41;43.17;;;20.77;;
63173;SDS011;49265;54.526;9.028;2024-01-30T02:42:06;38.58;;;20.40;;
63173;SDS011;49265;54.526;9.028;2024-01-30T02:44:36;40.63;;;20.17;;
63173;SDS011;49265;54.526;9.028;2024-01-30T02:47:01;40.78;;;20.20;;
63173;SDS011;49265;54.526;9.028;2024-01-30T02:49:33;42.42;;;21.23;;
63173;SDS011;49265;54.526;9.028;2024-01-30T02:51:58;38.92;;;19.88;;
63173;SDS011;49265;54.526;9.028;2024-01-30T02:54:24;36.88;;;19.88;;
63173;SDS011;49265;54.526;9.028;2024-01-30T02:56:55;35.72;;;18.95;;
63173;SDS011;49265;54.526;9.028;2024-01-30T02:59:24;40.08;;;19.77;;
63173;SDS011;49265;54.526;9.028;2024-01-30T03:01:49;43.35;;;20.85;;
63173;SDS011;49265;54.526;9.028;2024-01-30T03:04:14;39.97;;;19.63;;
63173;SDS011;49265;54.526;9.028;2024-01-30T03:06:44;38.72;;;19.35;;
63173;SDS011;49265;54.526;9.028;2024-01-30T03:09:09;35.47;;;19.27;;
63173;SDS011;49265;54.526;9.028;2024-01-30T03:11:38;38.80;;;19.98;;
63173;SDS011;49265;54.526;9.028;2024-01-30T03:14:03;41.03;;;21.35;;
63173;SDS011;49265;54.526;9.028;2024-01-30T03:16:29;39.83;;;20.27;;
63173;SDS011;49265;54.526;9.028;2024-01-30T03:18:54;41.92;;;21.08;;
63173;SDS011;49265;54.526;9.028;2024-01-30T03:21:23;39.38;;;22.35;;
63173;SDS011;49265;54.526;9.028;2024-01-30T03:23:48;42.55;;;21.92;;
63173;SDS011;49265;54.526;9.028;2024-01-30T03:26:13;41.08;;;21.58;;
63173;SDS011;49265;54.526;9.028;2024-01-30T03:28:40;44.28;;;21.80;;
63173;SDS011;49265;54.526;9.028;2024-01-30T03:31:06;39.92;;;21.52;;
63173;SDS011;49265;54.526;9.028;2024-01-30T03:33:31;38.70;;;20.45;;
63173;SDS011;49265;54.526;9.028;2024-01-30T03:35:57;38.20;;;21.30;;
63173;SDS011;49265;54.526;9.028;2024-01-30T03:38:22;43.83;;;21.70;;
63173;SDS011;49265;54.526;9.028;2024-01-30T03:40:47;42.75;;;22.15;;
63173;SDS011;49265;54.526;9.028;2024-01-30T03:43:12;41.40;;;20.98;;
63173;SDS011;49265;54.526;9.028;2024-01-30T03:45:38;44.03;;;21.92;;
63173;SDS011;49265;54.526;9.028;2024-01-30T03:48:03;39.03;;;20.50;;
63173;SDS011;49265;54.526;9.028;2024-01-30T03:50:32;40.45;;;21.98;;
63173;SDS011;49265;54.526;9.028;2024-01-30T03:53:06;44.50;;;22.02;;
63173;SDS011;49265;54.526;9.028;2024-01-30T03:55:32;43.03;;;21.02;;
63173;SDS011;49265;54.526;9.028;2024-01-30T03:57:57;40.00;;;20.60;;
63173;SDS011;49265;54.526;9.028;2024-01-30T04:00:22;42.30;;;22.40;;
63173;SDS011;49265;54.526;9.028;2024-01-30T04:02:51;41.72;;;21.02;;
63173;SDS011;49265;54.526;9.028;2024-01-30T04:05:16;37.63;;;21.23;;
63173;SDS011;49265;54.526;9.028;2024-01-30T04:07:42;40.00;;;20.95;;
63173;SDS011;49265;54.526;9.028;2024-01-30T04:10:08;44.40;;;22.20;;
63173;SDS011;49265;54.526;9.028;2024-01-30T04:12:36;41.00;;;22.15;;
63173;SDS011;49265;54.526;9.028;2024-01-30T04:15:04;39.83;;;21.55;;
63173;SDS011;49265;54.526;9.028;2024-01-30T04:17:30;40.10;;;21.52;;
63173;SDS011;49265;54.526;9.028;2024-01-30T04:19:55;46.00;;;20.92;;
63173;SDS011;49265;54.526;9.028;2024-01-30T04:22:20;39.88;;;21.55;;
63173;SDS011;49265;54.526;9.028;2024-01-30T04:24:46;43.35;;;21.52;;
63173;SDS011;49265;54.526;9.028;2024-01-30T04:27:17;45.15;;;21.25;;
63173;SDS011;49265;54.526;9.028;2024-01-30T04:29:46;40.50;;;21.63;;
63173;SDS011;49265;54.526;9.028;2024-01-30T04:32:14;41.60;;;20.40;;
63173;SDS011;49265;54.526;9.028;2024-01-30T04:34:39;45.78;;;22.95;;
63173;SDS011;49265;54.526;9.028;2024-01-30T04:37:08;39.22;;;22.98;;
63173;SDS011;49265;54.526;9.028;2024-01-30T04:39:33;38.10;;;21.88;;
63173;SDS011;49265;54.526;9.028;2024-01-30T04:41:58;39.65;;;19.83;;
63173;SDS011;49265;54.526;9.028;2024-01-30T04:44:24;37.90;;;20.75;;
63173;SDS011;49265;54.526;9.028;2024-01-30T04:46:50;38.17;;;20.25;;
63173;SDS011;49265;54.526;9.028;2024-01-30T04:49:18;43.88;;;21.40;;
63173;SDS011;49265;54.526;9.028;2024-01-30T04:51:46;37.60;;;20.83;;
63173;SDS011;49265;54.526;9.028;2024-01-30T04:54:11;41.20;;;21.58;;
63173;SDS011;49265;54.526;9.028;2024-01-30T04:56:37;41.03;;;23.13;;
63173;SDS011;49265;54.526;9.028;2024-01-30T04:59:03;44.05;;;23.55;;
63173;SDS011;49265;54.526;9.028;2024-01-30T05:01:28;36.58;;;20.88;;
63173;SDS011;49265;54.526;9.028;2024-01-30T05:03:54;41.78;;;21.92;;
63173;SDS011;49265;54.526;9.028;2024-01-30T05:06:28;38.92;;;21.63;;
63173;SDS011;49265;54.526;9.028;2024-01-30T05:44:35;45.22;;;22.67;;
63173;SDS011;49265;54.526;9.028;2024-01-30T05:47:00;45.38;;;23.42;;
63173;SDS011;49265;54.526;9.028;2024-01-30T05:49:31;38.85;;;22.27;;
63173;SDS011;49265;54.526;9.028;2024-01-30T05:51:57;46.78;;;22.42;;
63173;SDS011;49265;54.526;9.028;2024-01-30T05:54:29;42.90;;;22.92;;
63173;SDS011;49265;54.526;9.028;2024-01-30T05:57:14;36.08;;;21.27;;
63173;SDS011;49265;54.526;9.028;2024-01-30T05:59:46;41.75;;;22.45;;
63173;SDS011;49265;54.526;9.028;2024-01-30T06:02:13;45.45;;;22.67;;
63173;SDS011;49265;54.526;9.028;2024-01-30T06:04:47;43.08;;;23.55;;
63173;SDS011;49265;54.526;9.028;2024-01-30T06:07:36;44.67;;;22.83;;
63173;SDS011;49265;54.526;9.028;2024-01-30T06:10:17;42.60;;;22.30;;
63173;SDS011;49265;54.526;9.028;2024-01-30T06:12:48;39.38;;;22.08;;
63173;SDS011;49265;54.526;9.028;2024-01-30T06:17:54;39.05;;;21.55;;
63173;SDS011;49265;54.526;9.028;2024-01-30T06:20:25;42.67;;;22.10;;
63173;SDS011;49265;54.526;9.028;2024-01-30T06:22:56;41.67;;;22.45;;
63173;SDS011;49265;54.526;9.028;2024-01-30T06:25:21;42.13;;;21.83;;
63173;SDS011;49265;54.526;9.028;2024-01-30T06:27:47;39.60;;;22.48;;
63173;SDS011;49265;54.526;9.028;2024-01-30T06:30:12;44.78;;;22.08;;
63173;SDS011;49265;54.526;9.028;2024-01-30T06:32:38;44.30;;;22.73;;
63173;SDS011;49265;54.526;9.028;2024-01-30T06:35:06;37.95;;;21.27;;
63173;SDS011;49265;54.526;9.028;2024-01-30T06:40:00;35.88;;;21.08;;
63173;SDS011;49265;54.526;9.028;2024-01-30T06:42:26;39.72;;;22.42;;
63173;SDS011;49265;54.526;9.028;2024-01-30T06:45:00;36.60;;;20.75;;
63173;SDS011;49265;54.526;9.028;2024-01-30T06:47:26;38.13;;;20.10;;
63173;SDS011;49265;54.526;9.028;2024-01-30T06:49:51;35.50;;;20.83;;
63173;SDS011;49265;54.526;9.028;2024-01-30T06:52:17;35.13;;;20.70;;
63173;SDS011;49265;54.526;9.028;2024-01-30T06:54:45;36.05;;;20.27;;
63173;SDS011;49265;54.526;9.028;2024-01-30T06:57:10;37.33;;;20.45;;
63173;SDS011;49265;54.526;9.028;2024-01-30T06:59:37;33.17;;;19.73;;
63173;SDS011;49265;54.526;9.028;2024-01-30T07:02:06;35.42;;;19.98;;
63173;SDS011;49265;54.526;9.028;2024-01-30T07:04:32;33.97;;;19.27;;
63173;SDS011;49265;54.526;9.028;2024-01-30T07:06:58;36.53;;;20.73;;
63173;SDS011;49265;54.526;9.028;2024-01-30T07:09:23;38.15;;;20.52;;
63173;SDS011;49265;54.526;9.028;2024-01-30T07:11:49;38.50;;;20.15;;
63173;SDS011;49265;54.526;9.028;2024-01-30T07:14:17;36.58;;;19.58;;
63173;SDS011;49265;54.526;9.028;2024-01-30T07:16:49;37.47;;;21.27;;
63173;SDS011;49265;54.526;9.028;2024-01-30T07:19:15;37.85;;;20.95;;
63173;SDS011;49265;54.526;9.028;2024-01-30T07:21:46;34.45;;;20.08;;
63173;SDS011;49265;54.526;9.028;2024-01-30T07:24:12;35.97;;;20.40;;
63173;SDS011;49265;54.526;9.028;2024-01-30T07:26:43;38.10;;;21.40;;
63173;SDS011;49265;54.526;9.028;2024-01-30T07:29:09;35.80;;;20.30;;
63173;SDS011;49265;54.526;9.028;2024-01-30T07:31:37;35.53;;;20.83;;
63173;SDS011;49265;54.526;9.028;2024-01-30T07:34:05;36.13;;;20.35;;
63173;SDS011;49265;54.526;9.028;2024-01-30T07:36:31;38.45;;;21.75;;
63173;SDS011;49265;54.526;9.028;2024-01-30T07:38:56;33.45;;;18.90;;
63173;SDS011;49265;54.526;9.028;2024-01-30T07:41:22;40.25;;;20.40;;
63173;SDS011;49265;54.526;9.028;2024-01-30T07:43:48;36.22;;;21.38;;
63173;SDS011;49265;54.526;9.028;2024-01-30T07:46:13;36.15;;;18.52;;
63173;SDS011;49265;54.526;9.028;2024-01-30T07:48:48;33.55;;;19.27;;
63173;SDS011;49265;54.526;9.028;2024-01-30T07:51:13;33.53;;;19.95;;
63173;SDS011;49265;54.526;9.028;2024-01-30T07:53:39;34.25;;;20.17;;
63173;SDS011;49265;54.526;9.028;2024-01-30T07:56:05;37.58;;;20.25;;
63173;SDS011;49265;54.526;9.028;2024-01-30T07:58:30;39.83;;;21.17;;
63173;SDS011;49265;54.526;9.028;2024-01-30T08:00:59;35.67;;;20.30;;
63173;SDS011;49265;54.526;9.028;2024-01-30T08:03:31;34.63;;;20.10;;
63173;SDS011;49265;54.526;9.028;2024-01-30T08:05:57;34.50;;;19.52;;
63173;SDS011;49265;54.526;9.028;2024-01-30T08:08:25;33.38;;;19.52;;
63173;SDS011;49265;54.526;9.028;2024-01-30T08:10:58;36.25;;;18.90;;
63173;SDS011;49265;54.526;9.028;2024-01-30T08:13:27;35.22;;;19.02;;
63173;SDS011;49265;54.526;9.028;2024-01-30T08:15:52;32.88;;;18.63;;
63173;SDS011;49265;54.526;9.028;2024-01-30T08:18:18;36.42;;;19.90;;
63173;SDS011;49265;54.526;9.028;2024-01-30T08:20:43;33.95;;;19.58;;
63173;SDS011;49265;54.526;9.028;2024-01-30T08:23:09;33.38;;;19.70;;
63173;SDS011;49265;54.526;9.028;2024-01-30T08:25:41;35.03;;;19.40;;
63173;SDS011;49265;54.526;9.028;2024-01-30T08:28:13;33.58;;;19.23;;
63173;SDS011;49265;54.526;9.028;2024-01-30T08:30:38;35.50;;;18.88;;
63173;SDS011;49265;54.526;9.028;2024-01-30T08:33:05;33.67;;;18.77;;
63173;SDS011;49265;54.526;9.028;2024-01-30T08:35:30;32.25;;;18.98;;
63173;SDS011;49265;54.526;9.028;2024-01-30T08:37:58;36.53;;;19.83;;
63173;SDS011;49265;54.526;9.028;2024-01-30T08:40:24;33.08;;;19.60;;
63173;SDS011;49265;54.526;9.028;2024-01-30T08:42:49;36.60;;;20.42;;
63173;SDS011;49265;54.526;9.028;2024-01-30T08:45:14;34.03;;;19.05;;
63173;SDS011;49265;54.526;9.028;2024-01-30T08:47:46;32.58;;;18.85;;
63173;SDS011;49265;54.526;9.028;2024-01-30T08:50:11;32.38;;;18.58;;
63173;SDS011;49265;54.526;9.028;2024-01-30T08:52:42;34.83;;;18.05;;
63173;SDS011;49265;54.526;9.028;2024-01-30T08:55:11;33.40;;;19.02;;
63173;SDS011;49265;54.526;9.028;2024-01-30T08:57:36;35.42;;;19.33;;
63173;SDS011;49265;54.526;9.028;2024-01-30T09:00:02;29.63;;;17.55;;
63173;SDS011;49265;54.526;9.028;2024-01-30T09:02:34;29.30;;;18.98;;
63173;SDS011;49265;54.526;9.028;2024-01-30T09:05:00;29.38;;;17.83;;
63173;SDS011;49265;54.526;9.028;2024-01-30T09:07:25;30.63;;;18.08;;
63173;SDS011;49265;54.526;9.028;2024-01-30T09:09:50;32.95;;;19.10;;
63173;SDS011;49265;54.526;9.028;2024-01-30T09:12:22;29.40;;;17.67;;
63173;SDS011;49265;54.526;9.028;2024-01-30T09:14:47;31.60;;;18.05;;
63173;SDS011;49265;54.526;9.028;2024-01-30T09:17:12;28.67;;;18.17;;
63173;SDS011;49265;54.526;9.028;2024-01-30T09:19:41;32.13;;;18.85;;
63173;SDS011;49265;54.526;9.028;2024-01-30T09:22:06;29.20;;;17.23;;
63173;SDS011;49265;54.526;9.028;2024-01-30T09:24:35;32.15;;;18.35;;
63173;SDS011;49265;54.526;9.028;2024-01-30T09:27:00;30.33;;;17.27;;
63173;SDS011;49265;54.526;9.028;2024-01-30T09:29:29;34.72;;;18.15;;
63173;SDS011;49265;54.526;9.028;2024-01-30T09:32:00;30.08;;;16.98;;
63173;SDS011;49265;54.526;9.028;2024-01-30T09:34:28;31.23;;;16.50;;
63173;SDS011;49265;54.526;9.028;2024-01-30T09:36:55;28.05;;;16.80;;
63173;SDS011;49265;54.526;9.028;2024-01-30T09:39:24;26.67;;;16.70;;
63173;SDS011;49265;54.526;9.028;2024-01-30T09:41:51;29.73;;;16.92;;
63173;SDS011;49265;54.526;9.028;2024-01-30T09:44:20;31.45;;;17.20;;
63173;SDS011;49265;54.526;9.028;2024-01-30T09:46:47;28.27;;;16.75;;
63173;SDS011;49265;54.526;9.028;2024-01-30T09:49:13;29.67;;;16.67;;
63173;SDS011;49265;54.526;9.028;2024-01-30T09:51:39;26.88;;;17.13;;
63173;SDS011;49265;54.526;9.028;2024-01-30T09:54:05;28.00;;;17.55;;
63173;SDS011;49265;54.526;9.028;2024-01-30T09:56:30;30.60;;;16.55;;
63173;SDS011;49265;54.526;9.028;2024-01-30T09:58:56;31.20;;;16.67;;
63173;SDS011;49265;54.526;9.028;2024-01-30T10:01:21;26.63;;;15.50;;
63173;SDS011;49265;54.526;9.028;2024-01-30T10:03:47;26.08;;;16.05;;
63173;SDS011;49265;54.526;9.028;2024-01-30T10:06:15;29.70;;;16.08;;
63173;SDS011;49265;54.526;9.028;2024-01-30T10:08:42;29.73;;;17.20;;
63173;SDS011;49265;54.526;9.028;2024-01-30T10:11:07;28.67;;;15.93;;
63173;SDS011;49265;54.526;9.028;2024-01-30T10:13:33;28.83;;;17.70;;
63173;SDS011;49265;54.526;9.028;2024-01-30T10:15:58;28.05;;;15.80;;
63173;SDS011;49265;54.526;9.028;2024-01-30T10:18:24;29.02;;;15.85;;
63173;SDS011;49265;54.526;9.028;2024-01-30T10:20:50;27.40;;;16.77;;
63173;SDS011;49265;54.526;9.028;2024-01-30T10:23:16;25.67;;;15.50;;
63173;SDS011;49265;54.526;9.028;2024-01-30T10:25:41;30.75;;;17.42;;
63173;SDS011;49265;54.526;9.028;2024-01-30T10:28:07;30.55;;;15.10;;
63173;SDS011;49265;54.526;9.028;2024-01-30T10:30:35;26.77;;;16.25;;
63173;SDS011;49265;54.526;9.028;2024-01-30T10:33:01;25.85;;;15.73;;
63173;SDS011;49265;54.526;9.028;2024-01-30T10:35:27;27.10;;;15.63;;
63173;SDS011;49265;54.526;9.028;2024-01-30T10:37:52;25.58;;;15.23;;
63173;SDS011;49265;54.526;9.028;2024-01-30T10:40:32;27.70;;;15.90;;
63173;SDS011;49265;54.526;9.028;2024-01-30T10:42:58;25.48;;;15.25;;
63173;SDS011;49265;54.526;9.028;2024-01-30T10:45:29;27.42;;;15.43;;
63173;SDS011;49265;54.526;9.028;2024-01-30T10:47:56;27.75;;;15.02;;
63173;SDS011;49265;54.526;9.028;2024-01-30T10:50:32;26.60;;;15.40;;
63173;SDS011;49265;54.526;9.028;2024-01-30T10:53:03;26.60;;;15.80;;
63173;SDS011;49265;54.526;9.028;2024-01-30T10:55:32;27.63;;;15.43;;
63173;SDS011;49265;54.526;9.028;2024-01-30T10:57:58;27.15;;;14.45;;
63173;SDS011;49265;54.526;9.028;2024-01-30T11:00:33;26.10;;;15.32;;
63173;SDS011;49265;54.526;9.028;2024-01-30T11:02:59;24.63;;;14.63;;
63173;SDS011;49265;54.526;9.028;2024-01-30T11:05:25;22.98;;;13.80;;
63173;SDS011;49265;54.526;9.028;2024-01-30T11:07:52;24.92;;;14.63;;
63173;SDS011;49265;54.526;9.028;2024-01-30T14:32:11;12.70;;;6.88;;
63173;SDS011;49265;54.526;9.028;2024-01-30T14:34:36;18.60;;;7.40;;
63173;SDS011;49265;54.526;9.028;2024-01-30T14:37:02;17.98;;;7.80;;
63173;SDS011;49265;54.526;9.028;2024-01-30T14:39:27;17.23;;;8.45;;
63173;SDS011;49265;54.526;9.028;2024-01-30T14:42:02;20.02;;;9.80;;
63173;SDS011;49265;54.526;9.028;2024-01-30T14:44:28;18.65;;;8.65;;
63173;SDS011;49265;54.526;9.028;2024-01-30T14:46:53;26.50;;;9.95;;
63173;SDS011;49265;54.526;9.028;2024-01-30T14:49:36;20.85;;;9.45;;
63173;SDS011;49265;54.526;9.028;2024-01-30T14:52:02;20.98;;;8.50;;
63173;SDS011;49265;54.526;9.028;2024-01-30T14:54:29;23.40;;;10.43;;
63173;SDS011;49265;54.526;9.028;2024-01-30T14:56:54;20.13;;;9.88;;
63173;SDS011;49265;54.526;9.028;2024-01-30T14:59:22;19.75;;;9.50;;
63173;SDS011;49265;54.526;9.028;2024-01-30T15:01:47;21.67;;;9.35;;
63173;SDS011;49265;54.526;9.028;2024-01-30T15:04:15;20.23;;;9.27;;
63173;SDS011;49265;54.526;9.028;2024-01-30T15:06:41;20.40;;;9.32;;
63173;SDS011;49265;54.526;9.028;2024-01-30T15:09:14;19.70;;;9.02;;
63173;SDS011;49265;54.526;9.028;2024-01-30T15:11:44;17.73;;;7.97;;
63173;SDS011;49265;54.526;9.028;2024-01-30T15:14:11;18.80;;;9.38;;
63173;SDS011;49265;54.526;9.028;2024-01-30T15:16:45;17.60;;;7.47;;
63173;SDS011;49265;54.526;9.028;2024-01-30T15:19:32;10.73;;;5.85;;
63173;SDS011;49265;54.526;9.028;2024-01-30T15:22:03;10.48;;;5.38;;
63173;SDS011;49265;54.526;9.028;2024-01-30T15:24:28;9.75;;;4.22;;
63173;SDS011;49265;54.526;9.028;2024-01-30T15:26:56;9.23;;;3.63;;
63173;SDS011;49265;54.526;9.028;2024-01-30T15:29:22;5.10;;;1.85;;
63173;SDS011;49265;54.526;9.028;2024-01-30T15:31:57;4.55;;;1.33;;
63173;SDS011;49265;54.526;9.028;2024-01-30T15:34:28;3.38;;;1.05;;
63173;SDS011;49265;54.526;9.028;2024-01-30T15:37:00;2.80;;;0.95;;
63173;SDS011;49265;54.526;9.028;2024-01-30T15:42:01;3.70;;;0.88;;
63173;SDS011;49265;54.526;9.028;2024-01-30T15:44:26;2.75;;;1.38;;
63173;SDS011;49265;54.526;9.028;2024-01-30T15:46:57;7.70;;;1.15;;
63173;SDS011;49265;54.526;9.028;2024-01-30T15:49:23;5.00;;;0.80;;
63173;SDS011;49265;54.526;9.028;2024-01-30T15:51:56;4.80;;;1.02;;
63173;SDS011;49265;54.526;9.028;2024-01-30T15:57:02;7.53;;;1.07;;
63173;SDS011;49265;54.526;9.028;2024-01-30T15:59:36;4.95;;;0.80;;
63173;SDS011;49265;54.526;9.028;2024-01-30T16:02:14;6.38;;;1.17;;
63173;SDS011;49265;54.526;9.028;2024-01-30T16:04:40;3.17;;;1.10;;
63173;SDS011;49265;54.526;9.028;2024-01-30T16:07:11;3.60;;;1.30;;
63173;SDS011;49265;54.526;9.028;2024-01-30T16:09:36;4.55;;;1.38;;
63173;SDS011;49265;54.526;9.028;2024-01-30T16:12:02;5.75;;;1.38;;
63173;SDS011;49265;54.526;9.028;2024-01-30T16:14:28;3.33;;;1.30;;
63173;SDS011;49265;54.526;9.028;2024-01-30T16:16:56;5.32;;;1.33;;
63173;SDS011;49265;54.526;9.028;2024-01-30T16:19:21;8.02;;;1.17;;
63173;SDS011;49265;54.526;9.028;2024-01-30T16:21:48;7.18;;;1.52;;
63173;SDS011;49265;54.526;9.028;2024-01-30T16:24:13;6.10;;;1.23;;
63173;SDS011;49265;54.526;9.028;2024-01-30T16:26:49;9.23;;;1.83;;
63173;SDS011;49265;54.526;9.028;2024-01-30T16:29:14;5.75;;;1.40;;
63173;SDS011;49265;54.526;9.028;2024-01-30T16:31:40;4.80;;;1.38;;
63173;SDS011;49265;54.526;9.028;2024-01-30T16:34:05;5.95;;;2.00;;
63173;SDS011;49265;54.526;9.028;2024-01-30T16:36:30;5.65;;;1.30;;
63173;SDS011;49265;54.526;9.028;2024-01-30T16:38:56;9.15;;;2.95;;
63173;SDS011;49265;54.526;9.028;2024-01-30T16:41:23;10.82;;;1.38;;
63173;SDS011;49265;54.526;9.028;2024-01-30T16:43:49;6.22;;;1.67;;
63173;SDS011;49265;54.526;9.028;2024-01-30T16:46:47;7.90;;;1.60;;
63173;SDS011;49265;54.526;9.028;2024-01-30T16:49:24;6.85;;;1.60;;
63173;SDS011;49265;54.526;9.028;2024-01-30T16:51:50;8.98;;;1.77;;
63173;SDS011;49265;54.526;9.028;2024-01-30T16:54:15;5.68;;;1.83;;
63173;SDS011;49265;54.526;9.028;2024-01-30T16:56:40;8.93;;;2.22;;
63173;SDS011;49265;54.526;9.028;2024-01-30T16:59:13;8.80;;;2.22;;
63173;SDS011;49265;54.526;9.028;2024-01-30T17:01:41;4.72;;;1.80;;
63173;SDS011;49265;54.526;9.028;2024-01-30T17:04:15;10.75;;;2.90;;
63173;SDS011;49265;54.526;9.028;2024-01-30T17:06:42;8.05;;;2.75;;
63173;SDS011;49265;54.526;9.028;2024-01-30T17:09:07;12.38;;;3.55;;
63173;SDS011;49265;54.526;9.028;2024-01-30T17:11:35;10.85;;;2.88;;
63173;SDS011;49265;54.526;9.028;2024-01-30T17:14:01;8.52;;;3.17;;
63173;SDS011;49265;54.526;9.028;2024-01-30T17:16:57;9.32;;;3.67;;
63173;SDS011;49265;54.526;9.028;2024-01-30T17:19:22;11.43;;;3.10;;
63173;SDS011;49265;54.526;9.028;2024-01-30T17:21:48;6.97;;;3.05;;
63173;SDS011;49265;54.526;9.028;2024-01-30T17:24:13;11.50;;;3.90;;
63173;SDS011;49265;54.526;9.028;2024-01-30T17:26:40;5.78;;;3.10;;
63173;SDS011;49265;54.526;9.028;2024-01-30T17:29:06;8.02;;;3.38;;
63173;SDS011;49265;54.526;9.028;2024-01-30T17:31:34;10.00;;;3.78;;
63173;SDS011;49265;54.526;9.028;2024-01-30T17:34:02;7.88;;;3.67;;
63173;SDS011;49265;54.526;9.028;2024-01-30T17:36:36;9.88;;;3.55;;
63173;SDS011;49265;54.526;9.028;2024-01-30T17:39:01;11.15;;;4.35;;
63173;SDS011;49265;54.526;9.028;2024-01-30T17:41:30;14.50;;;4.55;;
63173;SDS011;49265;54.526;9.028;2024-01-30T17:43:55;14.75;;;5.22;;
63173;SDS011;49265;54.526;9.028;2024-01-30T17:46:20;16.02;;;4.75;;
63173;SDS011;49265;54.526;9.028;2024-01-30T17:48:52;12.60;;;4.90;;
63173;SDS011;49265;54.526;9.028;2024-01-30T17:51:20;15.23;;;5.65;;
63173;SDS011;49265;54.526;9.028;2024-01-30T17:53:52;12.32;;;4.60;;
63173;SDS011;49265;54.526;9.028;2024-01-30T17:56:17;19.77;;;6.55;;
63173;SDS011;49265;54.526;9.028;2024-01-30T17:58:43;15.77;;;5.03;;
63173;SDS011;49265;54.526;9.028;2024-01-30T18:01:11;11.93;;;5.45;;
63173;SDS011;49265;54.526;9.028;2024-01-30T18:03:40;11.50;;;5.22;;
63173;SDS011;49265;54.526;9.028;2024-01-30T18:06:05;11.73;;;5.53;;
63173;SDS011;49265;54.526;9.028;2024-01-30T18:08:37;11.35;;;4.88;;
63173;SDS011;49265;54.526;9.028;2024-01-30T18:11:05;13.52;;;4.68;;
63173;SDS011;49265;54.526;9.028;2024-01-30T18:13:30;12.35;;;4.50;;
63173;SDS011;49265;54.526;9.028;2024-01-30T18:15:59;11.27;;;4.00;;
63173;SDS011;49265;54.526;9.028;2024-01-30T18:18:24;14.00;;;4.97;;
63173;SDS011;49265;54.526;9.028;2024-01-30T18:20:51;16.48;;;4.55;;
63173;SDS011;49265;54.526;9.028;2024-01-30T18:23:16;14.07;;;4.63;;
63173;SDS011;49265;54.526;9.028;2024-01-30T18:25:42;12.73;;;4.72;;
63173;SDS011;49265;54.526;9.028;2024-01-30T18:28:10;14.73;;;5.03;;
63173;SDS011;49265;54.526;9.028;2024-01-30T18:30:36;10.95;;;4.43;;
63173;SDS011;49265;54.526;9.028;2024-01-30T18:33:04;10.27;;;4.13;;
63173;SDS011;49265;54.526;9.028;2024-01-30T18:35:32;12.93;;;5.70;;